Bewdley, United Kingdom
Current Conditions -  °F | °C
As of 4:20 AM on Wednesday 28 Jan 2015 (Local Time) from EGBB Reporting Station
Overcast Overcast  
Wind Chill: 38°   Ceiling: 700
Heat Index: 45°   Visibility: 6mi
Dew Point: 41°   Wind: 14mph
Humidity: 87%   Direction: 200°SSW
Pressure: 29.74"   Gusts: NA
Location:  52.38°N, 2.32°W
Report Text: EGBB 280420Z 20012KT 170V230 9999 BKN007 OVC022 07/05 Q1007
Loading
Personal Weather Stations






























Interactive Weather Map New forecast layout! Learn more

10-Day Weather Forecast

Advertisements
Track Severe Weather on mobile